Time,TemperatureF,DewpointF,PressureIn,WindDirection,WindDirectionDegrees,WindSpeedMPH,WindSpeedGustMPH,Humidity,HourlyPrecipIn,Conditions,Clouds,dailyrainin,SoftwareType,DateUTC
2013-07-13 00:04:00,71.2,45.7,30.05,North,0,0.0,4.8,40,0.00,,SKC,0.00,VWS V14.01,2013-07-13 05:04:00,
2013-07-13 00:09:00,71.1,45.5,30.05,SW,230,5.6,6.4,40,0.00,,SKC,0.00,VWS V14.01,2013-07-13 05:09:00,
2013-07-13 00:14:00,71.1,46.2,30.05,SSW,206,4.0,7.2,41,0.00,,SKC,0.00,VWS V14.01,2013-07-13 05:14:00,
2013-07-13 00:19:00,70.9,46.0,30.05,SSW,196,6.4,6.4,41,0.00,,SKC,0.00,VWS V14.01,2013-07-13 05:19:00,
2013-07-13 00:24:00,70.9,46.0,30.05,SSE,167,4.8,4.8,41,0.00,,SKC,0.00,VWS V14.01,2013-07-13 05:24:00,
2013-07-13 00:29:00,70.7,45.9,30.05,South,179,6.4,7.2,41,0.00,,SKC,0.00,VWS V14.01,2013-07-13 05:29:00,
2013-07-13 00:34:00,70.5,45.7,30.05,SSE,164,6.4,6.4,41,0.00,,SKC,0.00,VWS V14.01,2013-07-13 05:34:00,
2013-07-13 00:39:00,70.3,45.5,30.05,South,173,0.0,9.7,41,0.00,,SKC,0.00,VWS V14.01,2013-07-13 05:39:00,
2013-07-13 00:44:00,70.3,45.5,30.05,SSW,195,4.8,13.7,41,0.00,,SKC,0.00,VWS V14.01,2013-07-13 05:44:00,
2013-07-13 00:49:00,70.2,46.0,30.05,SSW,198,11.3,11.3,42,0.00,,SKC,0.00,VWS V14.01,2013-07-13 05:49:00,
2013-07-13 00:54:00,70.2,46.0,30.05,SSE,160,9.7,9.7,42,0.00,,SKC,0.00,VWS V14.01,2013-07-13 05:54:00,
2013-07-13 00:59:00,70.0,45.9,30.05,SSW,195,11.3,11.3,42,0.00,,SKC,0.00,VWS V14.01,2013-07-13 05:59:00,
2013-07-13 01:04:00,70.0,45.9,30.05,SW,226,5.6,5.6,42,0.00,,SKC,0.00,VWS V14.01,2013-07-13 06:04:00,
2013-07-13 01:09:00,70.0,45.9,30.05,South,184,5.6,5.6,42,0.00,,SKC,0.00,VWS V14.01,2013-07-13 06:09:00,
2013-07-13 01:14:00,69.8,45.7,30.05,SSE,154,9.7,9.7,42,0.00,,SKC,0.00,VWS V14.01,2013-07-13 06:14:00,
2013-07-13 01:19:00,69.8,46.3,30.05,SW,215,7.2,7.2,43,0.00,,SKC,0.00,VWS V14.01,2013-07-13 06:19:00,
2013-07-13 01:24:00,69.8,45.7,30.05,SSW,193,7.2,9.7,42,0.00,,SKC,0.00,VWS V14.01,2013-07-13 06:24:00,
2013-07-13 01:29:00,69.6,46.2,30.05,SSW,196,4.8,4.8,43,0.00,,SKC,0.00,VWS V14.01,2013-07-13 06:29:00,
2013-07-13 01:34:00,69.4,46.0,30.05,South,179,5.6,6.4,43,0.00,,SKC,0.00,VWS V14.01,2013-07-13 06:34:00,
2013-07-13 01:40:00,69.4,46.0,30.05,SW,214,15.7,15.7,43,0.00,,SKC,0.00,VWS V14.01,2013-07-13 06:40:00,
2013-07-13 01:45:00,69.4,46.0,30.05,SSE,160,6.4,11.3,43,0.00,,SKC,0.00,VWS V14.01,2013-07-13 06:45:00,
2013-07-13 01:50:00,69.3,46.4,30.05,SSW,192,7.2,10.5,44,0.00,,SKC,0.00,VWS V14.01,2013-07-13 06:50:00,
2013-07-13 01:55:00,69.1,46.3,30.05,SW,214,5.6,5.6,44,0.00,,SKC,0.00,VWS V14.01,2013-07-13 06:55:00,
2013-07-13 02:01:00,68.9,46.1,30.05,South,175,4.8,8.9,44,0.00,,SKC,0.00,VWS V14.01,2013-07-13 07:01:00,
2013-07-13 02:06:00,68.9,46.1,30.05,SSW,209,5.6,5.6,44,0.00,,SKC,0.00,VWS V14.01,2013-07-13 07:06:00,
2013-07-13 02:12:00,68.9,46.7,30.05,South,173,0.0,5.6,45,0.00,,SKC,0.00,VWS V14.01,2013-07-13 07:12:00,
2013-07-13 02:17:00,68.7,46.0,30.05,SW,217,0.0,9.7,44,0.00,,SKC,0.00,VWS V14.01,2013-07-13 07:17:00,
2013-07-13 02:22:00,68.7,46.5,30.05,SW,227,0.0,4.8,45,0.00,,SKC,0.00,VWS V14.01,2013-07-13 07:22:00,
2013-07-13 02:27:00,68.7,46.5,30.05,SSW,195,6.4,9.7,45,0.00,,SKC,0.00,VWS V14.01,2013-07-13 07:27:00,
2013-07-13 02:33:00,68.5,46.4,30.05,SSW,207,5.6,6.4,45,0.00,,SKC,0.00,VWS V14.01,2013-07-13 07:33:00,
2013-07-13 02:38:00,68.5,46.4,30.05,SSW,200,4.8,8.9,45,0.00,,SKC,0.00,VWS V14.01,2013-07-13 07:38:00,
2013-07-13 02:43:00,68.5,47.0,30.05,SW,226,4.8,10.5,46,0.00,,SKC,0.00,VWS V14.01,2013-07-13 07:43:00,
2013-07-13 02:48:00,68.5,47.0,30.05,SW,234,0.0,6.4,46,0.00,,SKC,0.00,VWS V14.01,2013-07-13 07:48:00,
2013-07-13 02:54:00,68.4,46.8,30.05,SSW,201,6.4,6.4,46,0.00,,SKC,0.00,VWS V14.01,2013-07-13 07:54:00,
2013-07-13 02:59:00,68.4,46.8,30.05,SW,230,0.0,0.0,46,0.00,,SKC,0.00,VWS V14.01,2013-07-13 07:59:00,
2013-07-13 03:04:00,68.2,47.2,30.05,South,189,0.0,0.0,47,0.00,,SKC,0.00,VWS V14.01,2013-07-13 08:04:00,
2013-07-13 03:09:00,68.2,47.2,30.05,South,179,5.6,5.6,47,0.00,,SKC,0.00,VWS V14.01,2013-07-13 08:09:00,
2013-07-13 03:14:00,68.2,47.2,30.05,South,177,5.6,5.6,47,0.00,,SKC,0.00,VWS V14.01,2013-07-13 08:14:00,
2013-07-13 03:19:00,68.0,47.0,30.05,SE,128,0.0,5.6,47,0.00,,SKC,0.00,VWS V14.01,2013-07-13 08:19:00,
2013-07-13 03:24:00,68.0,47.0,30.05,SSW,210,0.0,4.0,47,0.00,,SKC,0.00,VWS V14.01,2013-07-13 08:24:00,
2013-07-13 03:29:00,68.0,47.0,30.05,SSW,211,0.0,7.2,47,0.00,,SKC,0.00,VWS V14.01,2013-07-13 08:29:00,
2013-07-13 03:34:00,68.0,47.0,30.05,South,172,4.0,5.6,47,0.00,,SKC,0.00,VWS V14.01,2013-07-13 08:34:00,
2013-07-13 03:39:00,67.8,47.4,30.05,SSW,212,8.9,8.9,48,0.00,,SKC,0.00,VWS V14.01,2013-07-13 08:39:00,
2013-07-13 03:44:00,67.8,47.4,30.05,SSW,208,6.4,6.4,48,0.00,,SKC,0.00,VWS V14.01,2013-07-13 08:44:00,
2013-07-13 03:49:00,67.8,47.4,30.05,ESE,112,5.6,5.6,48,0.00,,SKC,0.00,VWS V14.01,2013-07-13 08:49:00,
2013-07-13 03:54:00,67.8,47.4,30.05,NE,34,0.0,10.5,48,0.00,,SKC,0.00,VWS V14.01,2013-07-13 08:54:00,
2013-07-13 03:59:00,67.8,47.4,30.05,SSW,203,9.7,9.7,48,0.00,,SKC,0.00,VWS V14.01,2013-07-13 08:59:00,
2013-07-13 04:04:00,67.8,46.9,30.05,ESE,119,14.9,14.9,47,0.00,,SKC,0.00,VWS V14.01,2013-07-13 09:04:00,
2013-07-13 04:09:00,67.8,46.9,30.05,ESE,105,5.6,9.7,47,0.00,,SKC,0.00,VWS V14.01,2013-07-13 09:09:00,
2013-07-13 04:14:00,67.8,46.9,30.05,South,191,11.3,13.7,47,0.00,,SKC,0.00,VWS V14.01,2013-07-13 09:14:00,
2013-07-13 04:19:00,67.8,46.9,30.05,WNW,295,0.0,6.4,47,0.00,,SKC,0.00,VWS V14.01,2013-07-13 09:19:00,
2013-07-13 04:24:00,67.8,46.9,30.02,ESE,111,10.5,11.3,47,0.00,,SKC,0.00,VWS V14.01,2013-07-13 09:24:00,
2013-07-13 04:29:00,67.8,46.9,30.02,South,181,5.6,5.6,47,0.00,,SKC,0.00,VWS V14.01,2013-07-13 09:29:00,
2013-07-13 04:34:00,67.8,46.9,30.02,South,185,14.9,14.9,47,0.00,,SKC,0.00,VWS V14.01,2013-07-13 09:34:00,
2013-07-13 04:39:00,68.0,47.0,30.02,SSW,192,7.2,15.7,47,0.00,,SKC,0.00,VWS V14.01,2013-07-13 09:39:00,
2013-07-13 04:44:00,67.8,46.9,30.02,SSW,210,5.6,10.5,47,0.00,,SKC,0.00,VWS V14.01,2013-07-13 09:44:00,
2013-07-13 04:49:00,67.8,46.9,30.02,South,178,0.0,0.0,47,0.00,,SKC,0.00,VWS V14.01,2013-07-13 09:49:00,
2013-07-13 04:54:00,68.0,47.0,30.05,SSW,207,5.6,9.7,47,0.00,,SKC,0.00,VWS V14.01,2013-07-13 09:54:00,
2013-07-13 04:59:00,68.0,46.5,30.05,SW,214,7.2,7.2,46,0.00,,SKC,0.00,VWS V14.01,2013-07-13 09:59:00,
2013-07-13 05:04:00,68.0,47.0,30.05,SSW,195,11.3,11.3,47,0.00,,SKC,0.00,VWS V14.01,2013-07-13 10:04:00,
2013-07-13 05:09:00,68.2,46.6,30.05,West,264,4.8,15.7,46,0.00,,SKC,0.00,VWS V14.01,2013-07-13 10:09:00,
2013-07-13 05:14:00,68.2,46.6,30.05,SW,227,6.4,11.3,46,0.00,,SKC,0.00,VWS V14.01,2013-07-13 10:14:00,
2013-07-13 05:19:00,68.0,46.5,30.05,SSW,212,5.6,9.7,46,0.00,,SKC,0.00,VWS V14.01,2013-07-13 10:19:00,
2013-07-13 05:24:00,68.0,46.5,30.05,SSW,198,11.3,11.3,46,0.00,,SKC,0.00,VWS V14.01,2013-07-13 10:24:00,
2013-07-13 05:29:00,68.0,47.0,30.05,WNW,284,4.8,10.5,47,0.00,,SKC,0.00,VWS V14.01,2013-07-13 10:29:00,
2013-07-13 05:34:00,68.0,46.5,30.05,SSW,197,7.2,7.2,46,0.00,,SKC,0.00,VWS V14.01,2013-07-13 10:34:00,
2013-07-13 05:39:00,67.8,46.9,30.05,South,187,8.9,11.3,47,0.00,,SKC,0.00,VWS V14.01,2013-07-13 10:39:00,
2013-07-13 05:44:00,67.8,46.9,30.05,South,170,11.3,11.3,47,0.00,,SKC,0.00,VWS V14.01,2013-07-13 10:44:00,
2013-07-13 05:49:00,67.8,46.9,30.05,SSW,192,5.6,11.3,47,0.00,,SKC,0.00,VWS V14.01,2013-07-13 10:49:00,
2013-07-13 05:54:00,67.8,46.9,30.05,SSW,195,4.8,14.9,47,0.00,,SKC,0.00,VWS V14.01,2013-07-13 10:54:00,
2013-07-13 05:59:00,67.8,46.3,30.05,South,177,11.3,11.3,46,0.00,,SKC,0.00,VWS V14.01,2013-07-13 10:59:00,
2013-07-13 06:04:00,67.8,46.3,30.05,South,186,7.2,7.2,46,0.00,,SKC,0.00,VWS V14.01,2013-07-13 11:04:00,
2013-07-13 06:10:00,68.0,46.5,30.05,SSW,203,0.0,6.4,46,0.00,,SKC,0.00,VWS V14.01,2013-07-13 11:10:00,
2013-07-13 06:15:00,68.0,46.5,30.05,SSW,211,5.6,7.2,46,0.00,,SKC,0.00,VWS V14.01,2013-07-13 11:15:00,
2013-07-13 06:20:00,68.0,45.9,30.05,SSW,202,14.5,14.5,45,0.00,,SKC,0.00,VWS V14.01,2013-07-13 11:20:00,
2013-07-13 06:26:00,68.0,46.5,30.05,SSW,192,10.5,10.5,46,0.00,,SKC,0.00,VWS V14.01,2013-07-13 11:26:00,
2013-07-13 06:31:00,68.0,45.9,30.05,SW,231,4.8,10.5,45,0.00,,SKC,0.00,VWS V14.01,2013-07-13 11:31:00,
2013-07-13 06:36:00,68.0,45.9,30.08,SSE,167,6.4,17.3,45,0.00,,SKC,0.00,VWS V14.01,2013-07-13 11:36:00,
2013-07-13 06:41:00,68.0,45.9,30.08,South,191,8.9,11.3,45,0.00,,SKC,0.00,VWS V14.01,2013-07-13 11:41:00,
2013-07-13 06:46:00,68.0,45.9,30.08,SW,218,5.6,7.2,45,0.00,,SKC,0.00,VWS V14.01,2013-07-13 11:46:00,
2013-07-13 06:51:00,68.2,46.0,30.08,SW,230,10.5,14.5,45,0.00,,SKC,0.00,VWS V14.01,2013-07-13 11:51:00,
2013-07-13 06:56:00,68.2,46.0,30.08,SSE,166,19.7,19.7,45,0.00,,SKC,0.00,VWS V14.01,2013-07-13 11:56:00,
2013-07-13 07:01:00,68.2,46.6,30.08,SSW,209,10.5,19.7,46,0.00,,SKC,0.00,VWS V14.01,2013-07-13 12:01:00,
2013-07-13 07:07:00,68.2,46.0,30.08,SW,219,4.0,12.9,45,0.00,,SKC,0.00,VWS V14.01,2013-07-13 12:07:00,
2013-07-13 07:12:00,68.2,46.0,30.08,SW,214,0.0,11.3,45,0.00,,SKC,0.00,VWS V14.01,2013-07-13 12:12:00,
2013-07-13 07:18:00,68.2,46.0,30.08,SW,214,0.0,5.6,45,0.00,,SKC,0.00,VWS V14.01,2013-07-13 12:18:00,
2013-07-13 07:23:00,68.2,46.0,30.11,ESE,120,0.0,5.6,45,0.00,,SKC,0.00,VWS V14.01,2013-07-13 12:23:00,
2013-07-13 07:29:00,68.2,46.6,30.11,ESE,119,0.0,0.0,46,0.00,,SKC,0.00,VWS V14.01,2013-07-13 12:29:00,
2013-07-13 07:34:00,68.2,46.0,30.11,SSE,152,0.0,5.6,45,0.00,,SKC,0.00,VWS V14.01,2013-07-13 12:34:00,
2013-07-13 07:39:00,68.2,46.0,30.08,SSW,205,0.0,0.0,45,0.00,,SKC,0.00,VWS V14.01,2013-07-13 12:39:00,
2013-07-13 07:44:00,68.0,47.0,30.08,NNW,336,4.8,4.8,47,0.00,,SKC,0.00,VWS V14.01,2013-07-13 12:44:00,
2013-07-13 07:49:00,68.2,46.6,30.08,ESE,111,4.0,4.8,46,0.00,,SKC,0.00,VWS V14.01,2013-07-13 12:49:00,
2013-07-13 07:54:00,68.2,46.6,30.11,ENE,73,0.0,6.4,46,0.00,,SKC,0.00,VWS V14.01,2013-07-13 12:54:00,
2013-07-13 07:59:00,68.0,47.0,30.11,NE,37,0.0,4.0,47,0.00,,SKC,0.00,VWS V14.01,2013-07-13 12:59:00,
2013-07-13 08:04:00,67.6,48.4,30.11,NNE,15,0.0,4.0,50,0.00,,SKC,0.00,VWS V14.01,2013-07-13 13:04:00,
2013-07-13 08:09:00,66.9,48.7,30.14,ENE,75,6.4,6.4,52,0.00,,SKC,0.00,VWS V14.01,2013-07-13 13:09:00,
2013-07-13 08:14:00,66.9,49.2,30.14,East,96,6.4,7.2,53,0.00,,SKC,0.00,VWS V14.01,2013-07-13 13:14:00,
2013-07-13 08:19:00,66.9,48.7,30.14,East,79,4.0,4.8,52,0.00,,SKC,0.00,VWS V14.01,2013-07-13 13:19:00,
2013-07-13 08:24:00,66.7,49.6,30.11,ENE,78,0.0,0.0,54,0.00,,SKC,0.00,VWS V14.01,2013-07-13 13:24:00,
2013-07-13 08:30:00,66.2,51.0,30.11,ENE,78,4.8,4.8,58,0.00,,SKC,0.00,VWS V14.01,2013-07-13 13:30:00,
2013-07-13 08:34:00,65.5,50.8,30.11,ENE,78,0.0,0.0,59,0.00,,SKC,0.00,VWS V14.01,2013-07-13 13:34:00,
2013-07-13 08:40:00,64.9,50.7,30.11,ENE,78,0.0,0.0,60,0.00,,SKC,0.00,VWS V14.01,2013-07-13 13:40:00,
2013-07-13 08:45:00,64.6,52.6,30.11,ENE,78,0.0,0.0,65,0.00,,SKC,0.00,VWS V14.01,2013-07-13 13:45:00,
2013-07-13 08:50:00,64.4,55.2,30.14,ENE,78,0.0,0.0,72,0.00,,SKC,0.00,VWS V14.01,2013-07-13 13:50:00,
2013-07-13 08:56:00,64.2,55.0,30.14,ENE,78,0.0,0.0,72,0.00,,SKC,0.00,VWS V14.01,2013-07-13 13:56:00,
2013-07-13 09:01:00,64.4,56.3,30.14,ENE,78,0.0,0.0,75,0.00,,SKC,0.00,VWS V14.01,2013-07-13 14:01:00,
2013-07-13 09:06:00,64.4,56.7,30.14,ENE,78,0.0,0.0,76,0.00,,SKC,0.00,VWS V14.01,2013-07-13 14:06:00,
2013-07-13 09:11:00,64.2,56.9,30.14,ENE,78,0.0,0.0,77,0.00,,SKC,0.00,VWS V14.01,2013-07-13 14:11:00,
2013-07-13 09:16:00,64.2,56.9,30.14,ENE,78,0.0,0.0,77,0.00,,SKC,0.00,VWS V14.01,2013-07-13 14:16:00,
2013-07-13 09:21:00,64.6,57.9,30.17,ENE,78,0.0,0.0,79,0.00,,SKC,0.00,VWS V14.01,2013-07-13 14:21:00,
2013-07-13 09:26:00,64.6,57.9,30.17,ENE,78,0.0,0.0,79,0.04,,SKC,0.04,VWS V14.01,2013-07-13 14:26:00,
2013-07-13 09:31:00,64.6,57.9,30.17,ENE,78,0.0,0.0,79,0.04,,SKC,0.04,VWS V14.01,2013-07-13 14:31:00,
2013-07-13 09:36:00,64.4,57.8,30.17,ENE,78,0.0,0.0,79,0.04,,SKC,0.04,VWS V14.01,2013-07-13 14:36:00,
2013-07-13 09:41:00,64.2,57.9,30.17,ENE,78,0.0,0.0,80,0.04,,SKC,0.04,VWS V14.01,2013-07-13 14:41:00,
2013-07-13 09:47:00,64.0,58.4,30.17,ENE,78,0.0,0.0,82,0.04,,SKC,0.04,VWS V14.01,2013-07-13 14:47:00,
2013-07-13 09:52:00,63.7,58.1,30.14,ENE,78,0.0,0.0,82,0.08,,SKC,0.08,VWS V14.01,2013-07-13 14:52:00,
2013-07-13 09:58:00,63.3,57.7,30.14,East,95,9.7,9.7,82,0.08,,SKC,0.08,VWS V14.01,2013-07-13 14:58:00,
2013-07-13 10:03:00,63.1,57.9,30.14,SE,136,5.6,5.6,83,0.08,,SKC,0.08,VWS V14.01,2013-07-13 15:03:00,
2013-07-13 10:08:00,63.0,57.4,30.14,ENE,71,5.6,5.6,82,0.12,,SKC,0.12,VWS V14.01,2013-07-13 15:08:00,
2013-07-13 10:13:00,62.8,57.5,30.14,ENE,71,5.6,5.6,83,0.12,,SKC,0.12,VWS V14.01,2013-07-13 15:13:00,
2013-07-13 10:19:00,62.8,57.5,30.14,ENE,71,5.6,5.6,83,0.12,,SKC,0.12,VWS V14.01,2013-07-13 15:19:00,
2013-07-13 10:25:00,62.8,57.5,30.17,ENE,71,5.6,5.6,83,0.12,,SKC,0.12,VWS V14.01,2013-07-13 15:25:00,
2013-07-13 10:30:00,62.8,57.9,30.17,ENE,71,5.6,5.6,84,0.08,,SKC,0.12,VWS V14.01,2013-07-13 15:30:00,
2013-07-13 10:35:00,62.8,58.5,30.20,ENE,71,5.6,5.6,86,0.08,,SKC,0.12,VWS V14.01,2013-07-13 15:35:00,
2013-07-13 10:41:00,62.8,58.9,30.20,ENE,71,5.6,5.6,87,0.08,,SKC,0.12,VWS V14.01,2013-07-13 15:41:00,
2013-07-13 10:46:00,62.8,58.9,30.20,ENE,71,5.6,5.6,87,0.12,,SKC,0.16,VWS V14.01,2013-07-13 15:46:00,
2013-07-13 10:51:00,62.6,58.7,30.17,ENE,71,5.6,5.6,87,0.12,,SKC,0.16,VWS V14.01,2013-07-13 15:51:00,
2013-07-13 10:56:00,63.0,59.7,30.17,ENE,71,5.6,5.6,89,0.08,,SKC,0.16,VWS V14.01,2013-07-13 15:56:00,
2013-07-13 11:01:00,63.0,59.7,30.17,ENE,71,5.6,5.6,89,0.08,,SKC,0.16,VWS V14.01,2013-07-13 16:01:00,
2013-07-13 11:06:00,62.8,59.8,30.20,ENE,71,5.6,5.6,90,0.04,,SKC,0.16,VWS V14.01,2013-07-13 16:06:00,
2013-07-13 11:12:00,62.8,59.8,30.20,ENE,71,5.6,5.6,90,0.04,,SKC,0.16,VWS V14.01,2013-07-13 16:12:00,
2013-07-13 11:17:00,62.6,59.9,30.20,ENE,71,5.6,5.6,91,0.04,,SKC,0.16,VWS V14.01,2013-07-13 16:17:00,
2013-07-13 11:22:00,62.6,59.9,30.14,ENE,71,5.6,5.6,91,0.08,,SKC,0.20,VWS V14.01,2013-07-13 16:22:00,
2013-07-13 11:27:00,62.6,60.2,30.14,ENE,71,5.6,5.6,92,0.08,,SKC,0.20,VWS V14.01,2013-07-13 16:27:00,
2013-07-13 11:32:00,62.4,60.1,30.14,ENE,71,5.6,5.6,92,0.08,,SKC,0.20,VWS V14.01,2013-07-13 16:32:00,
2013-07-13 11:37:00,62.6,60.2,30.14,ENE,71,5.6,5.6,92,0.08,,SKC,0.20,VWS V14.01,2013-07-13 16:37:00,
2013-07-13 11:42:00,62.6,60.2,30.14,ENE,71,5.6,5.6,92,0.08,,SKC,0.20,VWS V14.01,2013-07-13 16:42:00,
2013-07-13 11:47:00,62.4,60.4,30.14,ENE,71,5.6,5.6,93,0.04,,SKC,0.20,VWS V14.01,2013-07-13 16:47:00,
2013-07-13 11:52:00,62.2,60.2,30.11,ENE,71,5.6,5.6,93,0.04,,SKC,0.20,VWS V14.01,2013-07-13 16:52:00,
2013-07-13 11:58:00,62.1,60.0,30.11,ENE,71,5.6,5.6,93,0.08,,SKC,0.24,VWS V14.01,2013-07-13 16:58:00,
2013-07-13 12:04:00,61.9,59.8,30.11,ENE,71,5.6,5.6,93,0.08,,SKC,0.24,VWS V14.01,2013-07-13 17:04:00,
2013-07-13 12:09:00,61.9,59.5,30.11,ENE,71,5.6,5.6,92,0.08,,SKC,0.24,VWS V14.01,2013-07-13 17:09:00,
2013-07-13 12:14:00,62.2,59.9,30.11,ENE,71,5.6,5.6,92,0.08,,SKC,0.24,VWS V14.01,2013-07-13 17:14:00,
2013-07-13 12:20:00,62.1,59.7,30.11,ENE,71,5.6,5.6,92,0.08,,SKC,0.24,VWS V14.01,2013-07-13 17:20:00,
2013-07-13 12:25:00,62.2,59.6,30.11,ENE,71,5.6,5.6,91,0.04,,SKC,0.24,VWS V14.01,2013-07-13 17:25:00,
2013-07-13 12:31:00,62.2,59.3,30.11,ENE,71,5.6,5.6,90,0.04,,SKC,0.24,VWS V14.01,2013-07-13 17:31:00,
2013-07-13 12:36:00,62.4,58.8,30.08,ENE,71,5.6,5.6,88,0.04,,SKC,0.24,VWS V14.01,2013-07-13 17:36:00,
2013-07-13 12:42:00,62.6,58.4,30.08,ENE,71,5.6,5.6,86,0.04,,SKC,0.24,VWS V14.01,2013-07-13 17:42:00,
2013-07-13 12:47:00,62.8,57.9,30.08,ENE,71,5.6,5.6,84,0.04,,SKC,0.24,VWS V14.01,2013-07-13 17:47:00,
2013-07-13 12:52:00,63.0,57.7,30.05,ENE,71,5.6,5.6,83,0.04,,SKC,0.24,VWS V14.01,2013-07-13 17:52:00,
2013-07-13 12:58:00,63.0,57.0,30.05,WSW,250,27.0,27.0,81,0.04,,SKC,0.24,VWS V14.01,2013-07-13 17:58:00,
2013-07-13 13:03:00,63.0,57.0,30.05,SSW,209,12.9,23.8,81,0.00,,SKC,0.24,VWS V14.01,2013-07-13 18:03:00,
2013-07-13 13:08:00,63.1,56.5,30.02,SW,226,17.3,17.3,79,0.00,,SKC,0.24,VWS V14.01,2013-07-13 18:08:00,
2013-07-13 13:13:00,63.3,55.6,30.02,SW,226,17.3,17.3,76,0.00,,SKC,0.24,VWS V14.01,2013-07-13 18:13:00,
2013-07-13 13:18:00,63.5,55.4,30.02,SW,226,17.3,17.3,75,0.00,,SKC,0.24,VWS V14.01,2013-07-13 18:18:00,
2013-07-13 13:23:00,64.0,54.8,30.02,SW,226,17.3,17.3,72,0.00,,SKC,0.24,VWS V14.01,2013-07-13 18:23:00,
2013-07-13 13:28:00,64.4,54.8,30.02,SW,226,17.3,17.3,71,0.00,,SKC,0.24,VWS V14.01,2013-07-13 18:28:00,
2013-07-13 13:33:00,64.8,54.4,30.02,SW,226,17.3,17.3,69,0.00,,SKC,0.24,VWS V14.01,2013-07-13 18:33:00,
2013-07-13 13:38:00,65.3,54.1,30.05,SW,226,17.3,17.3,67,0.00,,SKC,0.24,VWS V14.01,2013-07-13 18:38:00,
2013-07-13 13:44:00,66.0,53.9,30.05,SW,226,17.3,17.3,65,0.00,,SKC,0.24,VWS V14.01,2013-07-13 18:44:00,
2013-07-13 13:50:00,66.2,54.1,30.05,West,275,0.0,0.0,65,0.00,,SKC,0.24,VWS V14.01,2013-07-13 18:50:00,
2013-07-13 13:55:00,66.4,53.4,30.05,South,176,0.0,0.0,63,0.00,,SKC,0.24,VWS V14.01,2013-07-13 18:55:00,
2013-07-13 14:00:00,66.7,54.2,30.05,South,178,0.0,0.0,64,0.00,,SKC,0.24,VWS V14.01,2013-07-13 19:00:00,
2013-07-13 14:05:00,67.5,54.9,30.08,East,80,5.6,5.6,64,0.00,,SKC,0.24,VWS V14.01,2013-07-13 19:05:00,
2013-07-13 14:10:00,67.5,54.4,30.08,NE,53,4.0,6.4,63,0.00,,SKC,0.24,VWS V14.01,2013-07-13 19:10:00,
2013-07-13 14:16:00,67.8,53.9,30.08,East,95,5.6,9.7,61,0.00,,SKC,0.24,VWS V14.01,2013-07-13 19:16:00,
2013-07-13 14:21:00,68.2,53.3,30.08,ESE,111,5.6,6.4,59,0.00,,SKC,0.24,VWS V14.01,2013-07-13 19:21:00,
2013-07-13 14:26:00,68.5,53.7,30.08,ENE,65,6.4,10.5,59,0.00,,SKC,0.24,VWS V14.01,2013-07-13 19:26:00,
2013-07-13 14:31:00,68.7,52.4,30.08,ENE,72,4.8,4.8,56,0.00,,SKC,0.24,VWS V14.01,2013-07-13 19:31:00,
2013-07-13 14:36:00,69.3,53.9,30.08,SSW,206,0.0,9.7,58,0.00,,SKC,0.24,VWS V14.01,2013-07-13 19:36:00,
2013-07-13 14:41:00,69.1,53.2,30.08,East,86,6.4,14.9,57,0.00,,SKC,0.24,VWS V14.01,2013-07-13 19:41:00,
2013-07-13 14:46:00,69.8,52.9,30.08,SE,134,4.0,8.1,55,0.00,,SKC,0.24,VWS V14.01,2013-07-13 19:46:00,
2013-07-13 14:51:00,70.2,52.8,30.08,East,88,7.2,7.2,54,0.00,,SKC,0.24,VWS V14.01,2013-07-13 19:51:00,
2013-07-13 14:56:00,70.7,53.3,30.08,East,84,6.4,6.4,54,0.00,,SKC,0.24,VWS V14.01,2013-07-13 19:56:00,
2013-07-13 15:01:00,70.3,51.9,30.08,South,183,4.8,4.8,52,0.00,,SKC,0.24,VWS V14.01,2013-07-13 20:01:00,
2013-07-13 15:06:00,71.2,52.7,30.08,SSE,161,0.0,0.0,52,0.00,,SKC,0.24,VWS V14.01,2013-07-13 20:06:00,
2013-07-13 15:12:00,71.4,52.4,30.08,ENE,62,4.0,10.5,51,0.00,,SKC,0.24,VWS V14.01,2013-07-13 20:12:00,
2013-07-13 15:17:00,72.0,50.7,30.08,ESE,119,8.9,8.9,47,0.00,,SKC,0.24,VWS V14.01,2013-07-13 20:17:00,
2013-07-13 15:22:00,71.6,49.2,30.08,SE,129,7.2,7.2,45,0.00,,SKC,0.24,VWS V14.01,2013-07-13 20:22:00,
2013-07-13 15:27:00,71.8,49.9,30.08,SSE,168,8.9,8.9,46,0.00,,SKC,0.24,VWS V14.01,2013-07-13 20:27:00,
2013-07-13 15:32:00,72.1,49.7,30.08,West,264,7.2,9.7,45,0.00,,SKC,0.24,VWS V14.01,2013-07-13 20:32:00,
2013-07-13 15:37:00,72.3,49.8,30.08,North,1,4.8,4.8,45,0.00,,SKC,0.24,VWS V14.01,2013-07-13 20:37:00,
2013-07-13 15:42:00,72.1,49.7,30.08,SSE,166,7.2,7.2,45,0.00,,SKC,0.24,VWS V14.01,2013-07-13 20:42:00,
2013-07-13 15:47:00,72.7,50.1,30.08,East,100,9.7,9.7,45,0.00,,SKC,0.24,VWS V14.01,2013-07-13 20:47:00,
2013-07-13 15:52:00,72.3,50.4,30.08,SW,216,5.6,5.6,46,0.00,,SKC,0.24,VWS V14.01,2013-07-13 20:52:00,
2013-07-13 15:57:00,73.2,50.6,30.08,North,7,4.0,5.6,45,0.00,,SKC,0.24,VWS V14.01,2013-07-13 20:57:00,
2013-07-13 16:02:00,72.7,48.9,30.08,SSE,151,4.8,4.8,43,0.00,,SKC,0.24,VWS V14.01,2013-07-13 21:02:00,
2013-07-13 16:08:00,74.3,50.4,30.08,SSE,150,0.0,6.4,43,0.00,,SKC,0.24,VWS V14.01,2013-07-13 21:08:00,
2013-07-13 16:13:00,74.1,49.6,30.08,SE,133,5.6,5.6,42,0.00,,SKC,0.24,VWS V14.01,2013-07-13 21:13:00,
2013-07-13 16:18:00,73.2,48.8,30.08,SE,136,14.9,14.9,42,0.00,,SKC,0.24,VWS V14.01,2013-07-13 21:18:00,
2013-07-13 16:23:00,73.9,49.4,30.08,ENE,74,4.8,4.8,42,0.00,,SKC,0.24,VWS V14.01,2013-07-13 21:23:00,
2013-07-13 16:29:00,73.8,49.3,30.08,SW,220,15.7,26.2,42,0.00,,SKC,0.24,VWS V14.01,2013-07-13 21:29:00,
2013-07-13 16:34:00,73.8,50.5,30.08,ENE,68,5.6,6.4,44,0.00,,SKC,0.24,VWS V14.01,2013-07-13 21:34:00,
2013-07-13 16:39:00,73.2,50.0,30.08,ESE,103,7.2,8.9,44,0.00,,SKC,0.24,VWS V14.01,2013-07-13 21:39:00,
2013-07-13 16:44:00,73.2,50.0,30.08,NE,54,0.0,12.1,44,0.00,,SKC,0.24,VWS V14.01,2013-07-13 21:44:00,
2013-07-13 16:50:00,72.9,49.7,30.08,SE,129,9.7,13.7,44,0.00,,SKC,0.24,VWS V14.01,2013-07-13 21:50:00,
2013-07-13 16:56:00,72.3,49.2,30.08,ESE,116,14.5,14.5,44,0.00,,SKC,0.24,VWS V14.01,2013-07-13 21:56:00,
2013-07-13 17:01:00,72.1,49.0,30.08,ESE,122,7.2,15.7,44,0.00,,SKC,0.24,VWS V14.01,2013-07-13 22:01:00,
2013-07-13 17:07:00,72.5,50.0,30.08,ENE,75,9.7,14.5,45,0.00,,SKC,0.24,VWS V14.01,2013-07-13 22:07:00,
2013-07-13 17:12:00,73.0,50.5,30.08,SE,140,9.7,12.9,45,0.00,,SKC,0.24,VWS V14.01,2013-07-13 22:12:00,
2013-07-13 17:17:00,72.5,50.0,30.08,ENE,62,0.0,10.5,45,0.00,,SKC,0.24,VWS V14.01,2013-07-13 22:17:00,
2013-07-13 17:22:00,72.3,49.2,30.08,South,179,9.7,11.3,44,0.00,,SKC,0.24,VWS V14.01,2013-07-13 22:22:00,
2013-07-13 17:27:00,72.5,50.0,30.08,SE,135,4.8,4.8,45,0.00,,SKC,0.24,VWS V14.01,2013-07-13 22:27:00,
2013-07-13 17:32:00,72.7,49.5,30.08,ESE,115,5.6,5.6,44,0.00,,SKC,0.24,VWS V14.01,2013-07-13 22:32:00,
2013-07-13 17:37:00,72.7,50.1,30.08,SSE,168,8.9,8.9,45,0.00,,SKC,0.24,VWS V14.01,2013-07-13 22:37:00,
2013-07-13 17:42:00,72.9,50.9,30.08,SE,126,5.6,7.2,46,0.00,,SKC,0.24,VWS V14.01,2013-07-13 22:42:00,
2013-07-13 17:47:00,73.0,51.1,30.08,SE,133,5.6,5.6,46,0.00,,SKC,0.24,VWS V14.01,2013-07-13 22:47:00,
2013-07-13 17:52:00,72.9,50.9,30.08,ENE,65,0.0,0.0,46,0.00,,SKC,0.24,VWS V14.01,2013-07-13 22:52:00,
2013-07-13 17:57:00,72.1,51.4,30.08,ESE,109,9.7,9.7,48,0.00,,SKC,0.24,VWS V14.01,2013-07-13 22:57:00,
2013-07-13 18:02:00,72.0,51.2,30.08,South,169,11.3,11.3,48,0.00,,SKC,0.24,VWS V14.01,2013-07-13 23:02:00,
2013-07-13 18:07:00,72.5,51.7,30.08,SW,215,4.0,9.7,48,0.00,,SKC,0.24,VWS V14.01,2013-07-13 23:07:00,
2013-07-13 18:12:00,72.3,51.0,30.08,SSE,149,6.4,11.3,47,0.00,,SKC,0.24,VWS V14.01,2013-07-13 23:12:00,
2013-07-13 18:17:00,72.3,51.0,30.08,SSE,155,5.6,5.6,47,0.00,,SKC,0.24,VWS V14.01,2013-07-13 23:17:00,
2013-07-13 18:22:00,72.3,51.0,30.08,SSW,199,5.6,5.6,47,0.00,,SKC,0.24,VWS V14.01,2013-07-13 23:22:00,
2013-07-13 18:27:00,72.1,51.4,30.08,SE,133,0.0,6.4,48,0.00,,SKC,0.24,VWS V14.01,2013-07-13 23:27:00,
2013-07-13 18:32:00,72.1,51.9,30.08,ESE,112,4.0,4.0,49,0.00,,SKC,0.24,VWS V14.01,2013-07-13 23:32:00,
2013-07-13 18:37:00,72.1,52.5,30.08,East,90,5.6,5.6,50,0.00,,SKC,0.24,VWS V14.01,2013-07-13 23:37:00,
2013-07-13 18:42:00,71.8,52.7,30.08,SE,125,9.7,9.7,51,0.00,,SKC,0.24,VWS V14.01,2013-07-13 23:42:00,
2013-07-13 18:47:00,71.6,52.0,30.08,ESE,105,4.8,8.9,50,0.00,,SKC,0.24,VWS V14.01,2013-07-13 23:47:00,
2013-07-13 18:53:00,71.6,52.0,30.08,ENE,73,7.2,7.2,50,0.00,,SKC,0.24,VWS V14.01,2013-07-13 23:53:00,
2013-07-13 18:59:00,71.8,52.2,30.08,ENE,78,4.8,6.4,50,0.00,,SKC,0.24,VWS V14.01,2013-07-13 23:59:00,
2013-07-13 19:04:00,71.6,51.5,30.08,NE,39,5.6,5.6,49,0.00,,SKC,0.24,VWS V14.01,2013-07-14 00:04:00,
2013-07-13 19:09:00,71.6,52.0,30.08,SSW,198,0.0,8.9,50,0.00,,SKC,0.24,VWS V14.01,2013-07-14 00:09:00,
2013-07-13 19:14:00,71.6,52.5,30.08,SE,127,4.0,7.2,51,0.00,,SKC,0.24,VWS V14.01,2013-07-14 00:14:00,
2013-07-13 19:20:00,71.6,52.0,30.08,North,0,4.0,6.4,50,0.00,,SKC,0.24,VWS V14.01,2013-07-14 00:20:00,
2013-07-13 19:26:00,71.6,52.0,30.08,ESE,113,7.2,7.2,50,0.00,,SKC,0.24,VWS V14.01,2013-07-14 00:26:00,
2013-07-13 19:31:00,71.4,52.4,30.08,SSE,150,4.8,5.6,51,0.00,,SKC,0.24,VWS V14.01,2013-07-14 00:31:00,
2013-07-13 19:36:00,71.4,51.8,30.08,SE,140,4.0,7.2,50,0.00,,SKC,0.24,VWS V14.01,2013-07-14 00:36:00,
2013-07-13 19:42:00,71.4,51.8,30.08,NNW,346,5.6,8.9,50,0.00,,SKC,0.24,VWS V14.01,2013-07-14 00:42:00,
2013-07-13 19:47:00,71.4,51.8,30.08,ESE,109,6.4,6.4,50,0.00,,SKC,0.24,VWS V14.01,2013-07-14 00:47:00,
2013-07-13 19:52:00,71.2,51.7,30.08,ENE,71,7.2,7.2,50,0.00,,SKC,0.24,VWS V14.01,2013-07-14 00:52:00,
2013-07-13 19:57:00,71.2,51.7,30.08,SE,133,5.6,5.6,50,0.00,,SKC,0.24,VWS V14.01,2013-07-14 00:57:00,
2013-07-13 20:02:00,70.9,51.3,30.08,SE,131,11.3,11.3,50,0.00,,SKC,0.24,VWS V14.01,2013-07-14 01:02:00,
2013-07-13 20:07:00,70.9,51.9,30.08,WNW,297,5.6,8.9,51,0.00,,SKC,0.24,VWS V14.01,2013-07-14 01:07:00,
2013-07-13 20:12:00,70.7,51.7,30.08,SE,124,4.8,4.8,51,0.00,,SKC,0.24,VWS V14.01,2013-07-14 01:12:00,
2013-07-13 20:17:00,70.5,51.0,30.08,ENE,70,7.2,7.2,50,0.00,,SKC,0.24,VWS V14.01,2013-07-14 01:17:00,
2013-07-13 20:22:00,70.5,51.0,30.08,SSW,201,9.7,9.7,50,0.00,,SKC,0.24,VWS V14.01,2013-07-14 01:22:00,
2013-07-13 20:27:00,70.3,50.8,30.08,South,171,4.0,10.5,50,0.00,,SKC,0.24,VWS V14.01,2013-07-14 01:27:00,
2013-07-13 20:32:00,70.2,51.2,30.08,ENE,63,4.8,4.8,51,0.00,,SKC,0.24,VWS V14.01,2013-07-14 01:32:00,
2013-07-13 20:37:00,70.0,51.6,30.08,North,6,4.8,4.8,52,0.00,,SKC,0.24,VWS V14.01,2013-07-14 01:37:00,
2013-07-13 20:42:00,69.8,51.9,30.08,SSE,149,0.0,8.9,53,0.00,,SKC,0.24,VWS V14.01,2013-07-14 01:42:00,
2013-07-13 20:48:00,69.8,52.4,30.08,ENE,63,4.8,8.9,54,0.00,,SKC,0.24,VWS V14.01,2013-07-14 01:48:00,
2013-07-13 20:53:00,69.6,52.8,30.08,ESE,109,0.0,9.7,55,0.00,,SKC,0.24,VWS V14.01,2013-07-14 01:53:00,
2013-07-13 20:59:00,69.4,53.1,30.08,East,84,5.6,5.6,56,0.00,,SKC,0.24,VWS V14.01,2013-07-14 01:59:00,
2013-07-13 21:04:00,69.3,53.4,30.08,NE,46,8.1,9.7,57,0.00,,SKC,0.24,VWS V14.01,2013-07-14 02:04:00,
2013-07-13 21:09:00,69.3,53.9,30.08,South,178,4.8,5.6,58,0.00,,SKC,0.24,VWS V14.01,2013-07-14 02:09:00,
2013-07-13 21:15:00,69.1,54.2,30.08,East,89,0.0,5.6,59,0.00,,SKC,0.24,VWS V14.01,2013-07-14 02:15:00,
2013-07-13 21:20:00,68.9,54.0,30.08,SW,228,6.4,6.4,59,0.00,,SKC,0.24,VWS V14.01,2013-07-14 02:20:00,
2013-07-13 21:26:00,68.9,54.5,30.08,ESE,116,7.2,7.2,60,0.00,,SKC,0.24,VWS V14.01,2013-07-14 02:26:00,
2013-07-13 21:32:00,68.7,54.7,30.08,North,11,0.0,6.4,61,0.00,,SKC,0.24,VWS V14.01,2013-07-14 02:32:00,
2013-07-13 21:37:00,68.5,55.0,30.11,SE,130,5.6,6.4,62,0.00,,SKC,0.24,VWS V14.01,2013-07-14 02:37:00,
2013-07-13 21:42:00,68.5,55.5,30.11,North,0,0.0,0.0,63,0.00,,SKC,0.24,VWS V14.01,2013-07-14 02:42:00,
2013-07-13 21:47:00,68.5,55.9,30.11,East,98,0.0,4.0,64,0.00,,SKC,0.24,VWS V14.01,2013-07-14 02:47:00,
2013-07-13 21:52:00,68.5,56.3,30.11,SE,139,0.0,0.0,65,0.00,,SKC,0.24,VWS V14.01,2013-07-14 02:52:00,
2013-07-13 21:57:00,68.5,56.3,30.11,ENE,75,0.0,0.0,65,0.00,,SKC,0.24,VWS V14.01,2013-07-14 02:57:00,
2013-07-13 22:02:00,68.4,56.2,30.11,ESE,120,6.4,6.4,65,0.00,,SKC,0.24,VWS V14.01,2013-07-14 03:02:00,
2013-07-13 22:07:00,68.4,56.2,30.11,South,183,0.0,4.8,65,0.00,,SKC,0.24,VWS V14.01,2013-07-14 03:07:00,
2013-07-13 22:12:00,68.2,56.4,30.11,SSE,152,4.0,4.0,66,0.00,,SKC,0.24,VWS V14.01,2013-07-14 03:12:00,
2013-07-13 22:17:00,67.8,56.5,30.11,ESE,102,4.0,4.0,67,0.00,,SKC,0.24,VWS V14.01,2013-07-14 03:17:00,
2013-07-13 22:22:00,67.8,56.9,30.11,SE,127,0.0,0.0,68,0.00,,SKC,0.24,VWS V14.01,2013-07-14 03:22:00,
2013-07-13 22:27:00,67.5,57.0,30.11,ESE,111,0.0,7.2,69,0.00,,SKC,0.24,VWS V14.01,2013-07-14 03:27:00,
2013-07-13 22:32:00,67.3,57.2,30.11,SSE,154,4.0,4.0,70,0.00,,SKC,0.24,VWS V14.01,2013-07-14 03:32:00,
2013-07-13 22:37:00,67.1,57.4,30.11,ESE,122,4.0,4.0,71,0.00,,SKC,0.24,VWS V14.01,2013-07-14 03:37:00,
2013-07-13 22:42:00,67.1,57.4,30.11,East,84,0.0,0.0,71,0.00,,SKC,0.24,VWS V14.01,2013-07-14 03:42:00,
2013-07-13 22:47:00,67.1,57.4,30.11,East,82,0.0,4.8,71,0.00,,SKC,0.24,VWS V14.01,2013-07-14 03:47:00,
2013-07-13 22:52:00,67.1,57.8,30.11,SE,129,4.0,5.6,72,0.00,,SKC,0.24,VWS V14.01,2013-07-14 03:52:00,
2013-07-13 22:57:00,67.1,57.8,30.11,SE,131,0.0,5.6,72,0.00,,SKC,0.24,VWS V14.01,2013-07-14 03:57:00,
2013-07-13 23:01:00,67.1,57.8,30.11,East,88,0.0,6.4,72,0.00,,SKC,0.24,VWS V14.01,2013-07-14 04:01:00,
2013-07-13 23:02:00,67.1,57.8,30.11,ESE,123,0.0,0.0,72,0.00,,SKC,0.24,VWS V14.01,2013-07-14 04:02:00,
2013-07-13 23:04:00,67.1,57.8,30.11,ESE,110,4.8,5.6,72,0.00,,SKC,0.24,VWS V14.01,2013-07-14 04:04:00,
2013-07-13 23:07:00,67.1,57.8,30.11,East,79,0.0,0.0,72,0.00,,SKC,0.24,VWS V14.01,2013-07-14 04:07:00,
2013-07-13 23:13:00,67.1,58.2,30.11,ESE,123,0.0,5.6,73,0.00,,SKC,0.24,VWS V14.01,2013-07-14 04:13:00,
2013-07-13 23:18:00,67.1,58.2,30.11,ESE,108,0.0,0.0,73,0.00,,SKC,0.24,VWS V14.01,2013-07-14 04:18:00,
2013-07-13 23:23:00,67.3,58.3,30.11,ESE,114,0.0,4.8,73,0.00,,SKC,0.24,VWS V14.01,2013-07-14 04:23:00,
2013-07-13 23:28:00,67.3,58.3,30.11,East,93,4.0,4.0,73,0.00,,SKC,0.24,VWS V14.01,2013-07-14 04:28:00,
2013-07-13 23:33:00,67.1,58.2,30.11,SE,130,0.0,0.0,73,0.00,,SKC,0.24,VWS V14.01,2013-07-14 04:33:00,
2013-07-13 23:38:00,67.1,58.5,30.11,ESE,117,5.6,5.6,74,0.00,,SKC,0.24,VWS V14.01,2013-07-14 04:38:00,
2013-07-13 23:43:00,67.3,58.7,30.11,SE,134,0.0,0.0,74,0.00,,SKC,0.24,VWS V14.01,2013-07-14 04:43:00,
2013-07-13 23:48:00,67.3,58.7,30.11,SSE,148,0.0,5.6,74,0.00,,SKC,0.24,VWS V14.01,2013-07-14 04:48:00,
2013-07-13 23:53:00,67.3,58.7,30.11,ESE,108,0.0,4.8,74,0.00,,SKC,0.24,VWS V14.01,2013-07-14 04:53:00,
2013-07-13 23:58:00,67.3,58.7,30.11,ESE,107,4.0,4.0,74,0.00,,SKC,0.24,VWS V14.01,2013-07-14 04:58:00,